< Typhoon 199111 1991 Season Typhoon 199113 >
Typhoon 199112 (GLADYS)
General InformationTrack Information on Google MapsDetailed Wind InformationList of All Images || NewsDisaster Info.ResourceGoogle EarthGE AnimationAtom FeedGeoJSON
Detalied Best Track (Time Zone = UTC)
Year Month Day Hour Lat. Long. Pressure (hPa) Wind (kt) Class Image Chart
1991 8 15 00 22.0 153.0 1000 0 2 Image Chart
1991 8 15 06 22.1 151.9 998 0 2 Image Chart
1991 8 15 12 22.5 150.9 998 0 2 Image Chart
1991 8 15 18 22.9 149.8 998 0 2 Image Chart
1991 8 16 00 23.5 148.5 992 35 3 Image Chart
1991 8 16 06 23.8 147.4 990 40 3 Image Chart
1991 8 16 12 24.2 146.1 990 40 3 Image Chart
1991 8 16 15 24.8 145.6 990 45 3 Image Chart
1991 8 16 18 24.9 145.0 990 45 3 Image Chart
1991 8 16 21 25.0 144.5 990 45 3 Image Chart
1991 8 17 00 25.1 143.9 990 45 3 Image Chart
1991 8 17 03 25.6 143.3 990 45 3 Image Chart
1991 8 17 06 26.2 142.7 985 50 4 Image Chart
1991 8 17 09 26.2 141.9 985 50 4 Image Chart
1991 8 17 12 25.8 141.2 985 50 4 Image Chart
1991 8 17 15 25.8 140.6 980 55 4 Image Chart
1991 8 17 18 25.9 140.0 980 55 4 Image Chart
1991 8 17 21 25.9 139.4 975 60 4 Image Chart
1991 8 18 00 26.1 139.0 975 60 4 Image Chart
1991 8 18 03 26.1 138.5 975 60 4 Image Chart
1991 8 18 06 26.2 138.0 975 60 4 Image Chart
1991 8 18 09 26.2 137.6 975 60 4 Image Chart
1991 8 18 12 26.3 137.3 975 60 4 Image Chart
1991 8 18 15 26.5 137.1 975 60 4 Image Chart
1991 8 18 18 26.8 136.9 975 60 4 Image Chart
1991 8 18 21 27.2 136.6 975 60 4 Image Chart
1991 8 19 00 27.2 135.8 975 60 4 Image Chart
1991 8 19 03 27.2 135.3 975 60 4 Image Chart
1991 8 19 06 27.0 135.0 975 60 4 Image Chart
1991 8 19 09 27.1 134.7 975 60 4 Image Chart
1991 8 19 12 27.3 134.5 975 60 4 Image Chart
1991 8 19 15 27.5 134.2 975 60 4 Image Chart
1991 8 19 18 27.7 134.1 975 60 4 Image Chart
1991 8 19 21 27.8 133.9 975 60 4 Image Chart
1991 8 20 00 28.0 133.7 975 60 4 Image Chart
1991 8 20 03 28.1 133.3 975 60 4 Image Chart
1991 8 20 06 28.2 132.9 975 60 4 Image Chart
1991 8 20 09 28.1 132.4 975 60 4 Image Chart
1991 8 20 12 28.0 132.0 975 60 4 Image Chart
1991 8 20 15 28.3 131.5 975 60 4 Image Chart
1991 8 20 18 28.4 130.9 975 60 4 Image Chart
1991 8 20 21 28.6 130.5 975 60 4 Image Chart
1991 8 21 00 28.9 130.3 975 60 4 Image Chart
1991 8 21 03 28.9 130.2 970 60 4 Image Chart
1991 8 21 06 29.0 130.1 965 60 4 Image Chart
1991 8 21 09 29.2 129.9 965 60 4 Image Chart
1991 8 21 12 29.4 129.8 965 60 4 Image Chart
1991 8 21 15 29.6 129.7 965 60 4 Image Chart
1991 8 21 18 29.8 129.6 965 60 4 Image Chart
1991 8 21 21 30.1 129.4 965 60 4 Image Chart
1991 8 22 00 30.5 129.4 970 60 4 Image Chart
1991 8 22 03 30.8 129.3 975 60 4 Image Chart
1991 8 22 06 31.3 129.3 975 60 4 Image Chart
1991 8 22 09 31.6 129.2 975 60 4 Image Chart
1991 8 22 12 31.8 129.0 975 55 4 Image Chart
1991 8 22 15 32.1 129.0 975 50 4 Image Chart
1991 8 22 18 32.7 128.7 975 50 4 Image Chart
1991 8 22 21 33.2 128.5 975 50 4 Image Chart
1991 8 23 00 33.6 128.3 980 50 4 Image Chart
1991 8 23 03 34.1 128.0 980 50 4 Image Chart
1991 8 23 06 34.6 127.7 985 45 3 Image Chart
1991 8 23 09 35.0 127.2 988 40 3 Image Chart
1991 8 23 12 35.6 126.6 990 40 3 Image Chart
1991 8 23 18 35.8 125.4 992 35 3 Image Chart
1991 8 24 00 35.5 124.3 996 0 2 Image Chart
1991 8 24 06 34.8 122.5 998 0 2 Image Chart
1991 8 24 12 35.0 121.5 1000 0 2 Image Chart
1991 8 24 18 35.0 120.5 1002 0 2 Image Chart
Japan Meteorological Agency Best Track Data | Correction Date : 1992-01-04
< Typhoon 199111 1991 Season Typhoon 199113 >

Help